sensor_id;sensor_type;location;lat;lon;timestamp;temperature;humidity
2973;DHT22;1496;51.404;7.232;2023-03-14T00:01:29;10.80;99.90
2973;DHT22;1496;51.404;7.232;2023-03-14T00:03:56;10.80;99.90
2973;DHT22;1496;51.404;7.232;2023-03-14T00:06:22;10.80;99.90
2973;DHT22;1496;51.404;7.232;2023-03-14T00:08:49;10.80;99.90
2973;DHT22;1496;51.404;7.232;2023-03-14T00:11:22;10.80;99.90
2973;DHT22;1496;51.404;7.232;2023-03-14T00:13:50;10.80;99.90
2973;DHT22;1496;51.404;7.232;2023-03-14T00:16:18;10.80;99.90
2973;DHT22;1496;51.404;7.232;2023-03-14T00:18:44;10.80;99.90
2973;DHT22;1496;51.404;7.232;2023-03-14T00:21:11;10.80;99.90
2973;DHT22;1496;51.404;7.232;2023-03-14T00:23:40;10.80;99.90
2973;DHT22;1496;51.404;7.232;2023-03-14T00:26:15;10.70;99.90
2973;DHT22;1496;51.404;7.232;2023-03-14T00:28:43;10.60;99.90
2973;DHT22;1496;51.404;7.232;2023-03-14T00:31:13;10.60;99.90
2973;DHT22;1496;51.404;7.232;2023-03-14T00:33:41;10.60;99.90
2973;DHT22;1496;51.404;7.232;2023-03-14T00:36:10;10.60;99.90
2973;DHT22;1496;51.404;7.232;2023-03-14T00:38:38;10.70;99.90
2973;DHT22;1496;51.404;7.232;2023-03-14T00:41:12;10.70;99.90
2973;DHT22;1496;51.404;7.232;2023-03-14T00:43:41;10.80;99.90
2973;DHT22;1496;51.404;7.232;2023-03-14T00:46:08;10.80;99.90
2973;DHT22;1496;51.404;7.232;2023-03-14T00:48:34;11.00;99.90
2973;DHT22;1496;51.404;7.232;2023-03-14T00:51:02;11.00;99.90
2973;DHT22;1496;51.404;7.232;2023-03-14T00:53:29;11.00;99.90
2973;DHT22;1496;51.404;7.232;2023-03-14T00:55:56;11.00;99.90
2973;DHT22;1496;51.404;7.232;2023-03-14T00:58:23;11.10;99.90
2973;DHT22;1496;51.404;7.232;2023-03-14T01:00:50;11.10;99.90
2973;DHT22;1496;51.404;7.232;2023-03-14T01:03:17;11.10;99.90
2973;DHT22;1496;51.404;7.232;2023-03-14T01:05:43;10.90;99.90
2973;DHT22;1496;51.404;7.232;2023-03-14T01:08:09;10.60;99.90
2973;DHT22;1496;51.404;7.232;2023-03-14T01:10:39;10.20;1.00
2973;DHT22;1496;51.404;7.232;2023-03-14T01:13:06;9.90;1.00
2973;DHT22;1496;51.404;7.232;2023-03-14T01:15:36;9.60;1.00
2973;DHT22;1496;51.404;7.232;2023-03-14T01:18:04;9.50;1.00
2973;DHT22;1496;51.404;7.232;2023-03-14T01:20:31;9.40;1.00
2973;DHT22;1496;51.404;7.232;2023-03-14T01:22:59;9.20;1.00
2973;DHT22;1496;51.404;7.232;2023-03-14T01:25:26;9.10;1.00
2973;DHT22;1496;51.404;7.232;2023-03-14T01:27:53;9.10;1.00
2973;DHT22;1496;51.404;7.232;2023-03-14T01:30:20;9.00;1.00
2973;DHT22;1496;51.404;7.232;2023-03-14T01:32:46;9.00;22.60
2973;DHT22;1496;51.404;7.232;2023-03-14T01:35:16;8.90;99.90
2973;DHT22;1496;51.404;7.232;2023-03-14T01:37:44;8.90;99.90
2973;DHT22;1496;51.404;7.232;2023-03-14T01:40:16;8.90;99.90
2973;DHT22;1496;51.404;7.232;2023-03-14T01:42:58;8.90;1.00
2973;DHT22;1496;51.404;7.232;2023-03-14T01:51:40;8.80;99.90
2973;DHT22;1496;51.404;7.232;2023-03-14T01:54:31;8.80;1.00
2973;DHT22;1496;51.404;7.232;2023-03-14T01:57:08;8.80;99.90
2973;DHT22;1496;51.404;7.232;2023-03-14T01:59:38;8.80;99.90
2973;DHT22;1496;51.404;7.232;2023-03-14T02:02:07;8.70;99.90
2973;DHT22;1496;51.404;7.232;2023-03-14T02:04:37;8.70;1.00
2973;DHT22;1496;51.404;7.232;2023-03-14T02:09:53;8.60;1.00
2973;DHT22;1496;51.404;7.232;2023-03-14T02:12:24;8.70;1.00
2973;DHT22;1496;51.404;7.232;2023-03-14T02:15:06;8.70;1.00
2973;DHT22;1496;51.404;7.232;2023-03-14T02:18:04;8.70;97.90
2973;DHT22;1496;51.404;7.232;2023-03-14T02:20:52;8.70;99.90
2973;DHT22;1496;51.404;7.232;2023-03-14T02:23:30;8.70;99.90
2973;DHT22;1496;51.404;7.232;2023-03-14T02:26:03;8.70;1.00
2973;DHT22;1496;51.404;7.232;2023-03-14T02:28:32;8.70;1.00
2973;DHT22;1496;51.404;7.232;2023-03-14T02:31:01;8.70;99.90
2973;DHT22;1496;51.404;7.232;2023-03-14T02:33:32;8.80;99.90
2973;DHT22;1496;51.404;7.232;2023-03-14T02:36:02;8.80;1.00
2973;DHT22;1496;51.404;7.232;2023-03-14T02:41:09;8.80;1.00
2973;DHT22;1496;51.404;7.232;2023-03-14T02:43:42;8.80;99.90
2973;DHT22;1496;51.404;7.232;2023-03-14T02:46:14;8.80;99.90
2973;DHT22;1496;51.404;7.232;2023-03-14T02:48:56;8.80;99.90
2973;DHT22;1496;51.404;7.232;2023-03-14T02:51:26;8.80;99.90
2973;DHT22;1496;51.404;7.232;2023-03-14T02:53:54;8.80;99.90
2973;DHT22;1496;51.404;7.232;2023-03-14T02:56:22;8.80;99.90
2973;DHT22;1496;51.404;7.232;2023-03-14T02:58:49;8.80;99.90
2973;DHT22;1496;51.404;7.232;2023-03-14T03:01:45;8.80;99.90
2973;DHT22;1496;51.404;7.232;2023-03-14T03:04:11;8.80;99.90
2973;DHT22;1496;51.404;7.232;2023-03-14T03:06:38;8.80;91.60
2973;DHT22;1496;51.404;7.232;2023-03-14T03:09:05;8.80;81.70
2973;DHT22;1496;51.404;7.232;2023-03-14T03:11:32;8.80;5.60
2973;DHT22;1496;51.404;7.232;2023-03-14T03:13:59;8.90;1.00
2973;DHT22;1496;51.404;7.232;2023-03-14T03:16:29;8.90;1.00
2973;DHT22;1496;51.404;7.232;2023-03-14T03:18:56;8.90;1.00
2973;DHT22;1496;51.404;7.232;2023-03-14T03:21:23;8.90;1.00
2973;DHT22;1496;51.404;7.232;2023-03-14T03:23:50;8.90;1.00
2973;DHT22;1496;51.404;7.232;2023-03-14T03:26:17;8.90;1.00
2973;DHT22;1496;51.404;7.232;2023-03-14T03:28:44;8.90;1.00
2973;DHT22;1496;51.404;7.232;2023-03-14T03:31:13;9.00;1.00
2973;DHT22;1496;51.404;7.232;2023-03-14T03:33:39;9.00;1.00
2973;DHT22;1496;51.404;7.232;2023-03-14T03:36:07;9.00;1.00
2973;DHT22;1496;51.404;7.232;2023-03-14T03:38:36;9.00;1.00
2973;DHT22;1496;51.404;7.232;2023-03-14T03:41:07;9.10;1.00
2973;DHT22;1496;51.404;7.232;2023-03-14T03:43:35;9.10;1.00
2973;DHT22;1496;51.404;7.232;2023-03-14T03:46:06;9.10;1.00
2973;DHT22;1496;51.404;7.232;2023-03-14T03:48:34;9.00;1.00
2973;DHT22;1496;51.404;7.232;2023-03-14T03:51:04;9.00;1.00
2973;DHT22;1496;51.404;7.232;2023-03-14T03:53:31;8.90;1.00
2973;DHT22;1496;51.404;7.232;2023-03-14T03:55:58;8.90;1.00
2973;DHT22;1496;51.404;7.232;2023-03-14T03:58:25;8.90;1.00
2973;DHT22;1496;51.404;7.232;2023-03-14T04:00:52;8.90;50.10
2973;DHT22;1496;51.404;7.232;2023-03-14T04:03:18;8.90;99.90
2973;DHT22;1496;51.404;7.232;2023-03-14T04:05:46;8.80;99.90
2973;DHT22;1496;51.404;7.232;2023-03-14T04:08:13;8.80;99.90
2973;DHT22;1496;51.404;7.232;2023-03-14T04:10:40;8.80;1.00
2973;DHT22;1496;51.404;7.232;2023-03-14T04:13:10;8.80;19.80
2973;DHT22;1496;51.404;7.232;2023-03-14T04:15:38;8.80;99.90
2973;DHT22;1496;51.404;7.232;2023-03-14T04:18:15;8.70;99.90
2973;DHT22;1496;51.404;7.232;2023-03-14T04:20:42;8.70;99.90
2973;DHT22;1496;51.404;7.232;2023-03-14T04:23:11;8.70;99.90
2973;DHT22;1496;51.404;7.232;2023-03-14T04:25:38;8.60;99.90
2973;DHT22;1496;51.404;7.232;2023-03-14T04:28:05;8.60;99.90
2973;DHT22;1496;51.404;7.232;2023-03-14T04:30:33;8.60;99.90
2973;DHT22;1496;51.404;7.232;2023-03-14T04:33:09;8.50;1.00
2973;DHT22;1496;51.404;7.232;2023-03-14T04:35:45;8.50;99.90
2973;DHT22;1496;51.404;7.232;2023-03-14T04:38:14;8.40;99.90
2973;DHT22;1496;51.404;7.232;2023-03-14T04:40:45;8.40;99.90
2973;DHT22;1496;51.404;7.232;2023-03-14T04:43:14;8.50;99.90
2973;DHT22;1496;51.404;7.232;2023-03-14T04:45:55;8.40;99.90
2973;DHT22;1496;51.404;7.232;2023-03-14T04:48:23;8.40;99.90
2973;DHT22;1496;51.404;7.232;2023-03-14T04:50:51;8.40;99.90
2973;DHT22;1496;51.404;7.232;2023-03-14T04:53:19;8.40;99.90
2973;DHT22;1496;51.404;7.232;2023-03-14T04:55:52;8.40;99.90
2973;DHT22;1496;51.404;7.232;2023-03-14T04:58:21;8.50;99.90
2973;DHT22;1496;51.404;7.232;2023-03-14T05:00:49;8.50;99.90
2973;DHT22;1496;51.404;7.232;2023-03-14T05:03:35;8.50;99.90
2973;DHT22;1496;51.404;7.232;2023-03-14T05:06:13;8.50;99.90
2973;DHT22;1496;51.404;7.232;2023-03-14T05:09:00;8.50;99.90
2973;DHT22;1496;51.404;7.232;2023-03-14T05:11:47;8.50;99.90
2973;DHT22;1496;51.404;7.232;2023-03-14T05:14:29;8.40;99.90
2973;DHT22;1496;51.404;7.232;2023-03-14T05:17:28;8.30;99.90
2973;DHT22;1496;51.404;7.232;2023-03-14T05:20:21;8.20;99.90
2973;DHT22;1496;51.404;7.232;2023-03-14T05:22:56;8.20;99.90
2973;DHT22;1496;51.404;7.232;2023-03-14T05:25:43;8.20;99.90
2973;DHT22;1496;51.404;7.232;2023-03-14T05:28:21;8.20;99.90
2973;DHT22;1496;51.404;7.232;2023-03-14T05:30:58;8.20;99.90
2973;DHT22;1496;51.404;7.232;2023-03-14T05:33:42;8.20;99.90
2973;DHT22;1496;51.404;7.232;2023-03-14T05:36:39;8.20;99.90
2973;DHT22;1496;51.404;7.232;2023-03-14T05:39:41;8.20;99.90
2973;DHT22;1496;51.404;7.232;2023-03-14T05:42:26;8.20;99.90
2973;DHT22;1496;51.404;7.232;2023-03-14T05:45:19;8.20;99.90
2973;DHT22;1496;51.404;7.232;2023-03-14T05:48:02;8.20;99.90
2973;DHT22;1496;51.404;7.232;2023-03-14T05:50:43;8.30;99.90
2973;DHT22;1496;51.404;7.232;2023-03-14T05:53:39;8.40;99.90
2973;DHT22;1496;51.404;7.232;2023-03-14T05:56:24;8.40;99.90
2973;DHT22;1496;51.404;7.232;2023-03-14T05:59:03;8.40;99.90
2973;DHT22;1496;51.404;7.232;2023-03-14T06:01:38;8.40;99.90
2973;DHT22;1496;51.404;7.232;2023-03-14T06:04:14;8.50;99.90
2973;DHT22;1496;51.404;7.232;2023-03-14T06:06:43;8.50;99.90
2973;DHT22;1496;51.404;7.232;2023-03-14T06:09:12;8.50;99.90
2973;DHT22;1496;51.404;7.232;2023-03-14T06:11:41;8.50;99.90
2973;DHT22;1496;51.404;7.232;2023-03-14T06:14:09;8.50;99.90
2973;DHT22;1496;51.404;7.232;2023-03-14T06:16:39;8.50;99.90
2973;DHT22;1496;51.404;7.232;2023-03-14T06:19:06;8.50;99.90
2973;DHT22;1496;51.404;7.232;2023-03-14T06:21:34;8.50;99.90
2973;DHT22;1496;51.404;7.232;2023-03-14T06:24:01;8.60;99.90
2973;DHT22;1496;51.404;7.232;2023-03-14T06:26:32;8.60;99.90
2973;DHT22;1496;51.404;7.232;2023-03-14T06:29:01;8.60;99.90
2973;DHT22;1496;51.404;7.232;2023-03-14T06:31:30;8.60;99.90
2973;DHT22;1496;51.404;7.232;2023-03-14T06:34:02;8.60;99.90
2973;DHT22;1496;51.404;7.232;2023-03-14T06:36:30;8.60;99.90
2973;DHT22;1496;51.404;7.232;2023-03-14T06:38:59;8.60;99.90
2973;DHT22;1496;51.404;7.232;2023-03-14T06:41:27;8.60;99.90
2973;DHT22;1496;51.404;7.232;2023-03-14T06:43:54;8.60;99.90
2973;DHT22;1496;51.404;7.232;2023-03-14T06:46:21;8.60;99.90
2973;DHT22;1496;51.404;7.232;2023-03-14T06:48:49;8.60;99.90
2973;DHT22;1496;51.404;7.232;2023-03-14T06:51:18;8.60;99.90
2973;DHT22;1496;51.404;7.232;2023-03-14T06:53:48;8.60;99.90
2973;DHT22;1496;51.404;7.232;2023-03-14T06:56:15;8.70;99.90
2973;DHT22;1496;51.404;7.232;2023-03-14T06:58:42;8.60;99.90
2973;DHT22;1496;51.404;7.232;2023-03-14T07:01:25;8.70;99.90
2973;DHT22;1496;51.404;7.232;2023-03-14T07:03:54;8.60;99.90
2973;DHT22;1496;51.404;7.232;2023-03-14T07:06:22;8.70;99.90
2973;DHT22;1496;51.404;7.232;2023-03-14T07:08:49;8.70;99.90
2973;DHT22;1496;51.404;7.232;2023-03-14T07:11:17;8.70;99.90
2973;DHT22;1496;51.404;7.232;2023-03-14T07:13:45;8.80;99.90
2973;DHT22;1496;51.404;7.232;2023-03-14T07:16:12;8.80;99.90
2973;DHT22;1496;51.404;7.232;2023-03-14T07:18:40;8.80;99.90
2973;DHT22;1496;51.404;7.232;2023-03-14T07:21:07;8.80;99.90
2973;DHT22;1496;51.404;7.232;2023-03-14T07:23:37;8.80;99.90
2973;DHT22;1496;51.404;7.232;2023-03-14T07:26:04;8.70;99.90
2973;DHT22;1496;51.404;7.232;2023-03-14T07:28:32;8.70;99.90
2973;DHT22;1496;51.404;7.232;2023-03-14T07:31:07;8.80;99.90
2973;DHT22;1496;51.404;7.232;2023-03-14T07:33:35;8.80;99.90
2973;DHT22;1496;51.404;7.232;2023-03-14T07:36:03;8.80;99.90
2973;DHT22;1496;51.404;7.232;2023-03-14T07:38:30;8.90;99.90
2973;DHT22;1496;51.404;7.232;2023-03-14T07:41:20;9.00;99.90
2973;DHT22;1496;51.404;7.232;2023-03-14T07:44:26;8.90;99.90
2973;DHT22;1496;51.404;7.232;2023-03-14T07:46:54;9.00;99.90
2973;DHT22;1496;51.404;7.232;2023-03-14T07:49:21;9.10;99.90
2973;DHT22;1496;51.404;7.232;2023-03-14T07:51:48;9.10;99.90
2973;DHT22;1496;51.404;7.232;2023-03-14T07:54:17;9.20;99.90
2973;DHT22;1496;51.404;7.232;2023-03-14T07:56:45;9.10;99.90
2973;DHT22;1496;51.404;7.232;2023-03-14T07:59:11;9.10;99.90
2973;DHT22;1496;51.404;7.232;2023-03-14T08:01:38;9.10;99.90
2973;DHT22;1496;51.404;7.232;2023-03-14T08:04:05;9.10;99.90
2973;DHT22;1496;51.404;7.232;2023-03-14T08:06:34;9.10;99.90
2973;DHT22;1496;51.404;7.232;2023-03-14T08:09:03;9.20;99.90
2973;DHT22;1496;51.404;7.232;2023-03-14T08:11:30;9.10;99.90
2973;DHT22;1496;51.404;7.232;2023-03-14T08:13:55;9.10;99.90
2973;DHT22;1496;51.404;7.232;2023-03-14T08:16:22;9.10;99.90
2973;DHT22;1496;51.404;7.232;2023-03-14T08:18:49;9.20;99.90
2973;DHT22;1496;51.404;7.232;2023-03-14T08:21:16;9.20;99.90
2973;DHT22;1496;51.404;7.232;2023-03-14T08:23:46;9.20;99.90
2973;DHT22;1496;51.404;7.232;2023-03-14T08:26:15;9.20;99.90
2973;DHT22;1496;51.404;7.232;2023-03-14T08:28:42;9.20;99.90
2973;DHT22;1496;51.404;7.232;2023-03-14T08:31:09;9.30;99.90
2973;DHT22;1496;51.404;7.232;2023-03-14T08:33:36;9.40;99.90
2973;DHT22;1496;51.404;7.232;2023-03-14T08:36:04;9.30;99.90
2973;DHT22;1496;51.404;7.232;2023-03-14T08:38:31;9.40;99.90
2973;DHT22;1496;51.404;7.232;2023-03-14T08:40:59;9.40;99.90
2973;DHT22;1496;51.404;7.232;2023-03-14T08:43:27;9.40;99.90
2973;DHT22;1496;51.404;7.232;2023-03-14T08:45:53;9.50;99.90
2973;DHT22;1496;51.404;7.232;2023-03-14T08:48:20;9.50;99.90
2973;DHT22;1496;51.404;7.232;2023-03-14T08:50:47;9.60;99.90
2973;DHT22;1496;51.404;7.232;2023-03-14T08:53:16;9.60;99.90
2973;DHT22;1496;51.404;7.232;2023-03-14T08:55:44;9.60;99.90
2973;DHT22;1496;51.404;7.232;2023-03-14T08:58:13;9.60;99.90
2973;DHT22;1496;51.404;7.232;2023-03-14T09:00:39;9.60;99.90
2973;DHT22;1496;51.404;7.232;2023-03-14T09:03:06;9.60;99.90
2973;DHT22;1496;51.404;7.232;2023-03-14T09:05:35;9.80;99.90
2973;DHT22;1496;51.404;7.232;2023-03-14T09:08:02;9.80;99.90
2973;DHT22;1496;51.404;7.232;2023-03-14T09:10:29;9.80;99.90
2973;DHT22;1496;51.404;7.232;2023-03-14T09:12:57;9.80;99.90
2973;DHT22;1496;51.404;7.232;2023-03-14T09:15:24;9.80;99.90
2973;DHT22;1496;51.404;7.232;2023-03-14T09:17:52;9.80;99.90
2973;DHT22;1496;51.404;7.232;2023-03-14T09:20:20;9.70;99.90
2973;DHT22;1496;51.404;7.232;2023-03-14T09:22:48;9.70;99.90
2973;DHT22;1496;51.404;7.232;2023-03-14T09:25:15;9.60;99.90
2973;DHT22;1496;51.404;7.232;2023-03-14T09:27:41;9.60;99.90
2973;DHT22;1496;51.404;7.232;2023-03-14T09:30:09;9.50;99.90
2973;DHT22;1496;51.404;7.232;2023-03-14T09:32:37;9.50;99.90
2973;DHT22;1496;51.404;7.232;2023-03-14T09:35:05;9.50;99.90
2973;DHT22;1496;51.404;7.232;2023-03-14T09:37:31;9.50;99.90
2973;DHT22;1496;51.404;7.232;2023-03-14T09:40:02;9.40;99.90
2973;DHT22;1496;51.404;7.232;2023-03-14T09:42:37;9.40;99.90
2973;DHT22;1496;51.404;7.232;2023-03-14T09:45:23;9.30;99.90
2973;DHT22;1496;51.404;7.232;2023-03-14T09:47:51;8.90;99.90
2973;DHT22;1496;51.404;7.232;2023-03-14T09:50:20;8.50;99.90
2973;DHT22;1496;51.404;7.232;2023-03-14T09:52:51;8.40;99.90
2973;DHT22;1496;51.404;7.232;2023-03-14T09:55:21;8.30;99.90
2973;DHT22;1496;51.404;7.232;2023-03-14T09:58:00;8.20;99.90
2973;DHT22;1496;51.404;7.232;2023-03-14T10:00:30;8.10;99.90
2973;DHT22;1496;51.404;7.232;2023-03-14T10:05:42;8.00;99.90
2973;DHT22;1496;51.404;7.232;2023-03-14T10:08:13;7.90;99.90
2973;DHT22;1496;51.404;7.232;2023-03-14T10:10:40;8.00;99.90
2973;DHT22;1496;51.404;7.232;2023-03-14T10:13:20;7.90;99.90
2973;DHT22;1496;51.404;7.232;2023-03-14T10:15:55;7.90;99.90
2973;DHT22;1496;51.404;7.232;2023-03-14T10:18:25;7.70;99.90
2973;DHT22;1496;51.404;7.232;2023-03-14T10:27:19;7.60;99.90
2973;DHT22;1496;51.404;7.232;2023-03-14T10:29:58;7.50;99.90
2973;DHT22;1496;51.404;7.232;2023-03-14T10:37:51;7.50;99.90
2973;DHT22;1496;51.404;7.232;2023-03-14T10:40:20;7.60;99.90
2973;DHT22;1496;51.404;7.232;2023-03-14T10:42:49;7.70;99.90
2973;DHT22;1496;51.404;7.232;2023-03-14T10:45:36;7.60;99.90
2973;DHT22;1496;51.404;7.232;2023-03-14T10:53:24;7.50;99.90
2973;DHT22;1496;51.404;7.232;2023-03-14T10:55:55;7.40;99.90
2973;DHT22;1496;51.404;7.232;2023-03-14T10:58:30;7.40;99.90
2973;DHT22;1496;51.404;7.232;2023-03-14T11:01:37;7.20;99.90
2973;DHT22;1496;51.404;7.232;2023-03-14T11:06:56;7.10;99.90
2973;DHT22;1496;51.404;7.232;2023-03-14T11:15:38;7.10;99.90
2973;DHT22;1496;51.404;7.232;2023-03-14T11:23:42;6.60;99.90
2973;DHT22;1496;51.404;7.232;2023-03-14T11:26:26;6.60;99.90
2973;DHT22;1496;51.404;7.232;2023-03-14T11:29:20;6.70;99.90
2973;DHT22;1496;51.404;7.232;2023-03-14T11:31:52;6.80;99.90
2973;DHT22;1496;51.404;7.232;2023-03-14T11:34:28;7.00;99.90
2973;DHT22;1496;51.404;7.232;2023-03-14T11:39:29;6.90;99.90
2973;DHT22;1496;51.404;7.232;2023-03-14T11:42:01;6.80;99.90
2973;DHT22;1496;51.404;7.232;2023-03-14T11:44:34;6.80;99.90
2973;DHT22;1496;51.404;7.232;2023-03-14T11:49:56;6.90;99.90
2973;DHT22;1496;51.404;7.232;2023-03-14T11:52:53;6.90;99.90
2973;DHT22;1496;51.404;7.232;2023-03-14T11:55:37;6.90;99.90
2973;DHT22;1496;51.404;7.232;2023-03-14T11:58:27;6.90;99.90
2973;DHT22;1496;51.404;7.232;2023-03-14T12:00:58;6.90;99.90
2973;DHT22;1496;51.404;7.232;2023-03-14T12:03:57;6.70;99.90
2973;DHT22;1496;51.404;7.232;2023-03-14T12:09:13;6.70;99.90
2973;DHT22;1496;51.404;7.232;2023-03-14T12:11:52;6.70;99.90
2973;DHT22;1496;51.404;7.232;2023-03-14T12:14:26;6.70;99.90
2973;DHT22;1496;51.404;7.232;2023-03-14T12:17:41;6.70;99.90
2973;DHT22;1496;51.404;7.232;2023-03-14T12:19:44;6.60;99.90
2973;DHT22;1496;51.404;7.232;2023-03-14T12:22:30;6.40;99.90
2973;DHT22;1496;51.404;7.232;2023-03-14T12:25:05;6.30;99.90
2973;DHT22;1496;51.404;7.232;2023-03-14T12:30:35;6.40;99.90
2973;DHT22;1496;51.404;7.232;2023-03-14T12:33:30;6.50;99.90
2973;DHT22;1496;51.404;7.232;2023-03-14T12:36:11;6.50;99.90
2973;DHT22;1496;51.404;7.232;2023-03-14T12:39:39;6.60;99.90
2973;DHT22;1496;51.404;7.232;2023-03-14T12:41:46;6.70;99.90
2973;DHT22;1496;51.404;7.232;2023-03-14T12:47:41;7.00;99.90
2973;DHT22;1496;51.404;7.232;2023-03-14T12:49:54;7.00;99.90
2973;DHT22;1496;51.404;7.232;2023-03-14T12:55:10;6.80;99.90
2973;DHT22;1496;51.404;7.232;2023-03-14T12:57:40;7.00;99.90
2973;DHT22;1496;51.404;7.232;2023-03-14T13:00:53;7.20;99.90
2973;DHT22;1496;51.404;7.232;2023-03-14T13:03:19;7.20;99.90
2973;DHT22;1496;51.404;7.232;2023-03-14T13:06:01;7.10;99.90
2973;DHT22;1496;51.404;7.232;2023-03-14T13:08:50;7.20;99.90
2973;DHT22;1496;51.404;7.232;2023-03-14T13:11:23;7.10;99.90
2973;DHT22;1496;51.404;7.232;2023-03-14T13:13:57;7.10;99.90
2973;DHT22;1496;51.404;7.232;2023-03-14T13:16:25;6.80;99.90
2973;DHT22;1496;51.404;7.232;2023-03-14T13:19:06;6.80;99.90
2973;DHT22;1496;51.404;7.232;2023-03-14T13:21:37;6.70;99.90
2973;DHT22;1496;51.404;7.232;2023-03-14T13:24:07;6.70;99.90
2973;DHT22;1496;51.404;7.232;2023-03-14T13:26:43;6.70;99.90
2973;DHT22;1496;51.404;7.232;2023-03-14T13:31:52;6.20;99.90
2973;DHT22;1496;51.404;7.232;2023-03-14T13:34:20;6.30;99.90
2973;DHT22;1496;51.404;7.232;2023-03-14T13:36:53;6.40;99.90
2973;DHT22;1496;51.404;7.232;2023-03-14T13:39:24;6.50;99.90
2973;DHT22;1496;51.404;7.232;2023-03-14T13:41:53;6.60;99.90
2973;DHT22;1496;51.404;7.232;2023-03-14T13:46:52;6.80;99.90
2973;DHT22;1496;51.404;7.232;2023-03-14T13:49:27;6.80;99.90
2973;DHT22;1496;51.404;7.232;2023-03-14T13:51:55;6.70;99.90
2973;DHT22;1496;51.404;7.232;2023-03-14T13:54:22;6.60;99.90
2973;DHT22;1496;51.404;7.232;2023-03-14T13:57:00;6.70;99.90
2973;DHT22;1496;51.404;7.232;2023-03-14T13:59:32;6.70;99.90
2973;DHT22;1496;51.404;7.232;2023-03-14T14:02:14;6.70;99.90
2973;DHT22;1496;51.404;7.232;2023-03-14T14:04:42;6.60;99.90
2973;DHT22;1496;51.404;7.232;2023-03-14T14:07:15;6.90;99.90
2973;DHT22;1496;51.404;7.232;2023-03-14T14:09:49;7.00;99.90
2973;DHT22;1496;51.404;7.232;2023-03-14T14:15:28;7.40;99.90
2973;DHT22;1496;51.404;7.232;2023-03-14T14:17:58;7.40;22.40
2973;DHT22;1496;51.404;7.232;2023-03-14T14:20:43;7.40;98.40
2973;DHT22;1496;51.404;7.232;2023-03-14T14:23:14;7.40;99.90
2973;DHT22;1496;51.404;7.232;2023-03-14T14:25:42;7.40;1.00
2973;DHT22;1496;51.404;7.232;2023-03-14T14:28:28;7.60;99.90
2973;DHT22;1496;51.404;7.232;2023-03-14T14:34:02;7.60;1.00
2973;DHT22;1496;51.404;7.232;2023-03-14T14:36:41;7.60;99.90
2973;DHT22;1496;51.404;7.232;2023-03-14T14:41:49;7.70;99.90
2973;DHT22;1496;51.404;7.232;2023-03-14T14:44:19;7.90;99.90
2973;DHT22;1496;51.404;7.232;2023-03-14T14:46:47;8.00;99.90
2973;DHT22;1496;51.404;7.232;2023-03-14T14:49:17;7.90;99.90
2973;DHT22;1496;51.404;7.232;2023-03-14T14:51:50;7.80;99.90
2973;DHT22;1496;51.404;7.232;2023-03-14T14:54:19;7.40;99.90
2973;DHT22;1496;51.404;7.232;2023-03-14T14:56:51;7.40;99.90
2973;DHT22;1496;51.404;7.232;2023-03-14T14:59:26;7.30;99.90
2973;DHT22;1496;51.404;7.232;2023-03-14T15:02:00;7.20;99.90
2973;DHT22;1496;51.404;7.232;2023-03-14T15:04:29;7.30;99.90
2973;DHT22;1496;51.404;7.232;2023-03-14T15:06:56;7.20;99.90
2973;DHT22;1496;51.404;7.232;2023-03-14T15:09:24;7.10;99.90
2973;DHT22;1496;51.404;7.232;2023-03-14T15:11:51;7.20;99.90
2973;DHT22;1496;51.404;7.232;2023-03-14T15:14:17;7.00;99.90
2973;DHT22;1496;51.404;7.232;2023-03-14T15:16:46;7.00;99.90
2973;DHT22;1496;51.404;7.232;2023-03-14T15:19:23;7.00;99.90
2973;DHT22;1496;51.404;7.232;2023-03-14T15:21:54;7.00;99.90
2973;DHT22;1496;51.404;7.232;2023-03-14T15:24:22;6.90;99.90
2973;DHT22;1496;51.404;7.232;2023-03-14T15:26:49;6.90;99.90
2973;DHT22;1496;51.404;7.232;2023-03-14T15:29:19;7.10;99.90
2973;DHT22;1496;51.404;7.232;2023-03-14T15:31:47;7.00;99.90
2973;DHT22;1496;51.404;7.232;2023-03-14T15:34:14;6.90;99.90
2973;DHT22;1496;51.404;7.232;2023-03-14T15:36:42;7.00;99.90
2973;DHT22;1496;51.404;7.232;2023-03-14T15:39:10;6.90;99.90
2973;DHT22;1496;51.404;7.232;2023-03-14T15:41:37;6.90;99.90
2973;DHT22;1496;51.404;7.232;2023-03-14T15:44:06;6.90;99.90
2973;DHT22;1496;51.404;7.232;2023-03-14T15:46:33;6.90;99.90
2973;DHT22;1496;51.404;7.232;2023-03-14T15:49:00;6.90;99.90
2973;DHT22;1496;51.404;7.232;2023-03-14T15:51:27;6.80;99.90
2973;DHT22;1496;51.404;7.232;2023-03-14T15:53:54;6.90;99.90
2973;DHT22;1496;51.404;7.232;2023-03-14T15:56:24;6.90;99.90
2973;DHT22;1496;51.404;7.232;2023-03-14T15:58:54;6.80;99.90
2973;DHT22;1496;51.404;7.232;2023-03-14T16:01:25;6.70;99.90
2973;DHT22;1496;51.404;7.232;2023-03-14T16:03:52;6.50;99.90
2973;DHT22;1496;51.404;7.232;2023-03-14T16:06:21;6.40;99.90
2973;DHT22;1496;51.404;7.232;2023-03-14T16:08:48;6.40;99.90
2973;DHT22;1496;51.404;7.232;2023-03-14T16:11:15;6.40;99.90
2973;DHT22;1496;51.404;7.232;2023-03-14T16:13:44;6.30;99.90
2973;DHT22;1496;51.404;7.232;2023-03-14T16:16:13;6.30;99.90
2973;DHT22;1496;51.404;7.232;2023-03-14T16:18:43;6.30;99.90
2973;DHT22;1496;51.404;7.232;2023-03-14T16:21:16;6.10;99.90
2973;DHT22;1496;51.404;7.232;2023-03-14T16:23:45;6.20;99.90
2973;DHT22;1496;51.404;7.232;2023-03-14T16:26:17;6.30;99.90
2973;DHT22;1496;51.404;7.232;2023-03-14T16:28:45;6.30;99.90
2973;DHT22;1496;51.404;7.232;2023-03-14T16:31:16;6.30;99.90
2973;DHT22;1496;51.404;7.232;2023-03-14T16:33:43;6.30;99.90
2973;DHT22;1496;51.404;7.232;2023-03-14T16:36:12;6.10;99.90
2973;DHT22;1496;51.404;7.232;2023-03-14T16:38:42;6.00;99.90
2973;DHT22;1496;51.404;7.232;2023-03-14T16:41:13;6.00;99.90
2973;DHT22;1496;51.404;7.232;2023-03-14T16:43:42;6.00;99.90
2973;DHT22;1496;51.404;7.232;2023-03-14T16:46:17;6.00;99.90
2973;DHT22;1496;51.404;7.232;2023-03-14T16:48:44;6.00;99.90
2973;DHT22;1496;51.404;7.232;2023-03-14T16:51:13;6.00;99.90
2973;DHT22;1496;51.404;7.232;2023-03-14T16:53:42;5.90;99.90
2973;DHT22;1496;51.404;7.232;2023-03-14T16:56:10;6.00;99.90
2973;DHT22;1496;51.404;7.232;2023-03-14T16:58:38;6.10;99.90
2973;DHT22;1496;51.404;7.232;2023-03-14T17:01:10;6.00;99.90
2973;DHT22;1496;51.404;7.232;2023-03-14T17:03:43;5.90;99.90
2973;DHT22;1496;51.404;7.232;2023-03-14T17:06:19;5.90;99.90
2973;DHT22;1496;51.404;7.232;2023-03-14T17:08:51;5.90;99.90
2973;DHT22;1496;51.404;7.232;2023-03-14T17:11:19;5.80;99.90
2973;DHT22;1496;51.404;7.232;2023-03-14T17:13:46;5.90;99.90
2973;DHT22;1496;51.404;7.232;2023-03-14T17:16:14;5.90;99.90
2973;DHT22;1496;51.404;7.232;2023-03-14T17:18:42;5.90;99.90
2973;DHT22;1496;51.404;7.232;2023-03-14T17:21:11;5.80;99.90
2973;DHT22;1496;51.404;7.232;2023-03-14T17:23:41;5.80;99.90
2973;DHT22;1496;51.404;7.232;2023-03-14T17:26:10;5.70;99.90
2973;DHT22;1496;51.404;7.232;2023-03-14T17:28:41;5.70;99.90
2973;DHT22;1496;51.404;7.232;2023-03-14T17:31:13;5.70;99.90
2973;DHT22;1496;51.404;7.232;2023-03-14T17:33:39;5.70;99.90
2973;DHT22;1496;51.404;7.232;2023-03-14T17:36:08;5.70;99.90
2973;DHT22;1496;51.404;7.232;2023-03-14T17:38:37;5.70;99.90
2973;DHT22;1496;51.404;7.232;2023-03-14T17:41:14;5.70;99.90
2973;DHT22;1496;51.404;7.232;2023-03-14T17:43:42;5.80;99.90
2973;DHT22;1496;51.404;7.232;2023-03-14T17:46:12;5.60;99.90
2973;DHT22;1496;51.404;7.232;2023-03-14T17:48:41;5.70;99.90
2973;DHT22;1496;51.404;7.232;2023-03-14T17:51:10;5.60;99.90
2973;DHT22;1496;51.404;7.232;2023-03-14T17:53:39;5.60;99.90
2973;DHT22;1496;51.404;7.232;2023-03-14T17:56:08;5.60;99.90
2973;DHT22;1496;51.404;7.232;2023-03-14T17:58:36;5.60;99.90
2973;DHT22;1496;51.404;7.232;2023-03-14T18:01:14;5.60;99.90
2973;DHT22;1496;51.404;7.232;2023-03-14T18:03:42;5.60;99.90
2973;DHT22;1496;51.404;7.232;2023-03-14T18:06:14;5.60;99.90